sensor_id;sensor_type;location;lat;lon;timestamp;pressure;altitude;pressure_sealevel;temperature;humidity
20115;BME280;10218;42.874;25.320;2023-05-21T00:00:28;97187.63;;;13.45;100.00
20115;BME280;10218;42.874;25.320;2023-05-21T00:02:55;97187.50;;;13.17;100.00
20115;BME280;10218;42.874;25.320;2023-05-21T00:05:24;97191.28;;;12.93;100.00
20115;BME280;10218;42.874;25.320;2023-05-21T00:07:52;97189.63;;;12.77;100.00
20115;BME280;10218;42.874;25.320;2023-05-21T00:10:21;97183.16;;;12.72;100.00
20115;BME280;10218;42.874;25.320;2023-05-21T00:12:48;97188.34;;;12.59;100.00
20115;BME280;10218;42.874;25.320;2023-05-21T00:15:15;97184.09;;;12.79;100.00
20115;BME280;10218;42.874;25.320;2023-05-21T00:17:42;97179.75;;;12.78;100.00
20115;BME280;10218;42.874;25.320;2023-05-21T00:20:10;97181.03;;;12.67;100.00
20115;BME280;10218;42.874;25.320;2023-05-21T00:22:37;97175.22;;;12.49;100.00
20115;BME280;10218;42.874;25.320;2023-05-21T00:25:06;97175.41;;;12.62;100.00
20115;BME280;10218;42.874;25.320;2023-05-21T00:27:34;97168.19;;;12.63;100.00
20115;BME280;10218;42.874;25.320;2023-05-21T00:30:01;97174.09;;;12.73;100.00
20115;BME280;10218;42.874;25.320;2023-05-21T00:32:29;97165.50;;;12.63;100.00
20115;BME280;10218;42.874;25.320;2023-05-21T00:34:56;97170.22;;;12.61;100.00
20115;BME280;10218;42.874;25.320;2023-05-21T00:37:24;97162.53;;;12.72;100.00
20115;BME280;10218;42.874;25.320;2023-05-21T00:39:51;97155.16;;;12.89;100.00
20115;BME280;10218;42.874;25.320;2023-05-21T00:42:18;97159.22;;;13.00;100.00
20115;BME280;10218;42.874;25.320;2023-05-21T00:44:45;97152.53;;;12.96;100.00
20115;BME280;10218;42.874;25.320;2023-05-21T00:47:12;97138.00;;;13.19;100.00
20115;BME280;10218;42.874;25.320;2023-05-21T00:49:40;97133.22;;;13.36;100.00
20115;BME280;10218;42.874;25.320;2023-05-21T00:52:08;97130.88;;;13.48;100.00
20115;BME280;10218;42.874;25.320;2023-05-21T00:54:35;97130.75;;;13.35;100.00
20115;BME280;10218;42.874;25.320;2023-05-21T00:57:02;97129.97;;;13.19;100.00
20115;BME280;10218;42.874;25.320;2023-05-21T00:59:31;97131.50;;;13.28;100.00
20115;BME280;10218;42.874;25.320;2023-05-21T01:01:59;97128.56;;;13.23;100.00
20115;BME280;10218;42.874;25.320;2023-05-21T01:04:30;97125.88;;;13.09;100.00
20115;BME280;10218;42.874;25.320;2023-05-21T01:06:57;97126.31;;;13.27;100.00
20115;BME280;10218;42.874;25.320;2023-05-21T01:09:25;97128.47;;;13.17;100.00
20115;BME280;10218;42.874;25.320;2023-05-21T01:11:54;97120.81;;;13.14;100.00
20115;BME280;10218;42.874;25.320;2023-05-21T01:14:22;97126.06;;;13.07;100.00
20115;BME280;10218;42.874;25.320;2023-05-21T01:16:51;97117.66;;;13.10;100.00
20115;BME280;10218;42.874;25.320;2023-05-21T01:19:20;97116.75;;;13.03;100.00
20115;BME280;10218;42.874;25.320;2023-05-21T01:21:52;97106.94;;;13.10;100.00
20115;BME280;10218;42.874;25.320;2023-05-21T01:24:22;97114.44;;;13.15;100.00
20115;BME280;10218;42.874;25.320;2023-05-21T01:26:49;97109.38;;;13.26;100.00
20115;BME280;10218;42.874;25.320;2023-05-21T01:29:16;97099.72;;;13.25;100.00
20115;BME280;10218;42.874;25.320;2023-05-21T01:31:51;97104.44;;;13.45;100.00
20115;BME280;10218;42.874;25.320;2023-05-21T01:34:29;97105.13;;;13.53;100.00
20115;BME280;10218;42.874;25.320;2023-05-21T01:37:11;97103.50;;;13.16;100.00
20115;BME280;10218;42.874;25.320;2023-05-21T01:39:42;97100.66;;;13.39;100.00
20115;BME280;10218;42.874;25.320;2023-05-21T01:42:12;97102.25;;;13.34;100.00
20115;BME280;10218;42.874;25.320;2023-05-21T01:44:40;97100.97;;;13.30;100.00
20115;BME280;10218;42.874;25.320;2023-05-21T01:47:09;97094.84;;;13.14;100.00
20115;BME280;10218;42.874;25.320;2023-05-21T01:49:37;97102.13;;;13.20;100.00
20115;BME280;10218;42.874;25.320;2023-05-21T01:52:04;97095.22;;;13.33;100.00
20115;BME280;10218;42.874;25.320;2023-05-21T01:54:32;97095.41;;;13.52;100.00
20115;BME280;10218;42.874;25.320;2023-05-21T01:56:59;97103.59;;;13.08;100.00
20115;BME280;10218;42.874;25.320;2023-05-21T01:59:27;97100.31;;;12.92;100.00
20115;BME280;10218;42.874;25.320;2023-05-21T02:01:55;97088.06;;;13.18;100.00
20115;BME280;10218;42.874;25.320;2023-05-21T02:04:23;97100.00;;;13.01;100.00
20115;BME280;10218;42.874;25.320;2023-05-21T02:06:50;97093.84;;;12.86;100.00
20115;BME280;10218;42.874;25.320;2023-05-21T02:09:17;97106.84;;;12.53;100.00
20115;BME280;10218;42.874;25.320;2023-05-21T02:11:45;97102.59;;;12.59;100.00
20115;BME280;10218;42.874;25.320;2023-05-21T02:14:12;97097.72;;;12.98;100.00
20115;BME280;10218;42.874;25.320;2023-05-21T02:16:39;97100.25;;;13.06;100.00
20115;BME280;10218;42.874;25.320;2023-05-21T02:19:08;97105.34;;;13.16;100.00
20115;BME280;10218;42.874;25.320;2023-05-21T02:21:36;97100.66;;;13.03;100.00
20115;BME280;10218;42.874;25.320;2023-05-21T02:24:03;97106.72;;;13.26;100.00
20115;BME280;10218;42.874;25.320;2023-05-21T02:26:30;97107.59;;;13.12;100.00
20115;BME280;10218;42.874;25.320;2023-05-21T02:28:58;97115.34;;;13.22;100.00
20115;BME280;10218;42.874;25.320;2023-05-21T02:31:25;97113.47;;;13.22;100.00
20115;BME280;10218;42.874;25.320;2023-05-21T02:33:52;97106.78;;;13.33;100.00
20115;BME280;10218;42.874;25.320;2023-05-21T02:36:19;97107.13;;;13.45;100.00
20115;BME280;10218;42.874;25.320;2023-05-21T02:38:47;97110.34;;;13.61;100.00
20115;BME280;10218;42.874;25.320;2023-05-21T02:41:14;97100.91;;;13.65;100.00
20115;BME280;10218;42.874;25.320;2023-05-21T02:43:41;97112.22;;;13.40;100.00
20115;BME280;10218;42.874;25.320;2023-05-21T02:46:08;97105.72;;;13.49;100.00
20115;BME280;10218;42.874;25.320;2023-05-21T02:48:35;97107.88;;;13.39;100.00
20115;BME280;10218;42.874;25.320;2023-05-21T02:51:03;97108.03;;;13.01;100.00
20115;BME280;10218;42.874;25.320;2023-05-21T02:53:30;97116.81;;;13.10;100.00
20115;BME280;10218;42.874;25.320;2023-05-21T02:55:57;97120.53;;;13.09;100.00
20115;BME280;10218;42.874;25.320;2023-05-21T02:58:24;97122.75;;;12.91;100.00
20115;BME280;10218;42.874;25.320;2023-05-21T03:00:51;97124.59;;;13.19;100.00
20115;BME280;10218;42.874;25.320;2023-05-21T03:03:19;97109.28;;;13.35;100.00
20115;BME280;10218;42.874;25.320;2023-05-21T03:05:47;97110.53;;;13.17;100.00
20115;BME280;10218;42.874;25.320;2023-05-21T03:08:14;97109.09;;;13.15;100.00
20115;BME280;10218;42.874;25.320;2023-05-21T03:10:41;97107.63;;;13.34;100.00
20115;BME280;10218;42.874;25.320;2023-05-21T03:13:09;97110.56;;;13.39;100.00
20115;BME280;10218;42.874;25.320;2023-05-21T03:15:36;97121.03;;;13.34;100.00
20115;BME280;10218;42.874;25.320;2023-05-21T03:18:04;97119.81;;;13.00;100.00
20115;BME280;10218;42.874;25.320;2023-05-21T03:20:32;97115.28;;;13.15;100.00
20115;BME280;10218;42.874;25.320;2023-05-21T03:22:59;97116.50;;;13.34;100.00
20115;BME280;10218;42.874;25.320;2023-05-21T03:25:29;97121.28;;;13.39;100.00
20115;BME280;10218;42.874;25.320;2023-05-21T03:27:57;97117.19;;;13.43;100.00
20115;BME280;10218;42.874;25.320;2023-05-21T03:30:25;97119.37;;;13.33;100.00
20115;BME280;10218;42.874;25.320;2023-05-21T03:32:54;97119.75;;;13.30;100.00
20115;BME280;10218;42.874;25.320;2023-05-21T03:35:22;97123.03;;;13.25;100.00
20115;BME280;10218;42.874;25.320;2023-05-21T03:37:49;97112.69;;;13.64;100.00
20115;BME280;10218;42.874;25.320;2023-05-21T03:40:17;97108.38;;;13.27;100.00
20115;BME280;10218;42.874;25.320;2023-05-21T03:42:44;97121.38;;;13.45;100.00
20115;BME280;10218;42.874;25.320;2023-05-21T03:45:11;97108.41;;;13.70;100.00
20115;BME280;10218;42.874;25.320;2023-05-21T03:47:39;97114.63;;;13.77;100.00
20115;BME280;10218;42.874;25.320;2023-05-21T03:50:09;97116.06;;;13.73;100.00
20115;BME280;10218;42.874;25.320;2023-05-21T03:52:36;97109.34;;;13.62;100.00
20115;BME280;10218;42.874;25.320;2023-05-21T03:55:04;97119.06;;;13.85;100.00
20115;BME280;10218;42.874;25.320;2023-05-21T03:57:32;97113.37;;;13.73;100.00
20115;BME280;10218;42.874;25.320;2023-05-21T03:59:59;97121.59;;;13.93;100.00
20115;BME280;10218;42.874;25.320;2023-05-21T04:02:26;97106.44;;;14.06;100.00
20115;BME280;10218;42.874;25.320;2023-05-21T04:04:53;97099.63;;;14.10;100.00
20115;BME280;10218;42.874;25.320;2023-05-21T04:07:21;97103.25;;;13.96;100.00
20115;BME280;10218;42.874;25.320;2023-05-21T04:09:49;97104.69;;;13.99;100.00
20115;BME280;10218;42.874;25.320;2023-05-21T04:12:17;97103.06;;;14.26;100.00
20115;BME280;10218;42.874;25.320;2023-05-21T04:14:46;97101.97;;;13.92;100.00
20115;BME280;10218;42.874;25.320;2023-05-21T04:17:13;97108.22;;;13.99;100.00
20115;BME280;10218;42.874;25.320;2023-05-21T04:19:40;97098.84;;;13.89;100.00
20115;BME280;10218;42.874;25.320;2023-05-21T04:22:09;97106.22;;;13.80;100.00
20115;BME280;10218;42.874;25.320;2023-05-21T04:24:37;97095.56;;;13.65;100.00
20115;BME280;10218;42.874;25.320;2023-05-21T04:27:05;97108.50;;;13.62;100.00
20115;BME280;10218;42.874;25.320;2023-05-21T04:29:32;97104.44;;;13.66;100.00
20115;BME280;10218;42.874;25.320;2023-05-21T04:32:03;97108.41;;;13.70;100.00
20115;BME280;10218;42.874;25.320;2023-05-21T04:34:30;97104.00;;;14.11;100.00
20115;BME280;10218;42.874;25.320;2023-05-21T04:37:00;97098.69;;;13.97;100.00
20115;BME280;10218;42.874;25.320;2023-05-21T04:39:28;97102.59;;;14.22;100.00
20115;BME280;10218;42.874;25.320;2023-05-21T04:41:57;97103.75;;;14.06;100.00
20115;BME280;10218;42.874;25.320;2023-05-21T04:44:24;97089.75;;;14.18;100.00
20115;BME280;10218;42.874;25.320;2023-05-21T04:46:52;97101.69;;;14.08;100.00
20115;BME280;10218;42.874;25.320;2023-05-21T04:49:23;97093.81;;;14.07;100.00
20115;BME280;10218;42.874;25.320;2023-05-21T04:51:50;97100.56;;;14.52;100.00
20115;BME280;10218;42.874;25.320;2023-05-21T04:54:17;97091.75;;;14.71;100.00
20115;BME280;10218;42.874;25.320;2023-05-21T04:56:44;97089.25;;;15.17;100.00
20115;BME280;10218;42.874;25.320;2023-05-21T04:59:13;97084.72;;;15.31;100.00
20115;BME280;10218;42.874;25.320;2023-05-21T05:01:41;97077.09;;;15.48;100.00
20115;BME280;10218;42.874;25.320;2023-05-21T05:04:10;97075.00;;;15.36;100.00
20115;BME280;10218;42.874;25.320;2023-05-21T05:06:37;97075.41;;;15.40;100.00
20115;BME280;10218;42.874;25.320;2023-05-21T05:09:04;97080.91;;;15.79;100.00
20115;BME280;10218;42.874;25.320;2023-05-21T05:11:31;97080.78;;;15.27;100.00
20115;BME280;10218;42.874;25.320;2023-05-21T05:13:59;97092.59;;;15.26;100.00
20115;BME280;10218;42.874;25.320;2023-05-21T05:16:26;97080.00;;;15.46;100.00
20115;BME280;10218;42.874;25.320;2023-05-21T05:18:54;97085.16;;;15.28;100.00
20115;BME280;10218;42.874;25.320;2023-05-21T05:21:22;97085.47;;;15.79;100.00
20115;BME280;10218;42.874;25.320;2023-05-21T05:23:52;97083.97;;;16.22;100.00
20115;BME280;10218;42.874;25.320;2023-05-21T05:26:21;97075.28;;;16.14;100.00
20115;BME280;10218;42.874;25.320;2023-05-21T05:28:48;97081.25;;;16.49;100.00
20115;BME280;10218;42.874;25.320;2023-05-21T05:31:15;97080.44;;;16.35;100.00
20115;BME280;10218;42.874;25.320;2023-05-21T05:33:43;97088.94;;;16.25;100.00
20115;BME280;10218;42.874;25.320;2023-05-21T05:36:10;97087.31;;;15.92;100.00
20115;BME280;10218;42.874;25.320;2023-05-21T05:38:37;97088.53;;;16.35;100.00
20115;BME280;10218;42.874;25.320;2023-05-21T05:41:04;97088.50;;;16.48;100.00
20115;BME280;10218;42.874;25.320;2023-05-21T05:43:32;97084.97;;;16.61;100.00
20115;BME280;10218;42.874;25.320;2023-05-21T05:45:59;97077.88;;;16.66;100.00
20115;BME280;10218;42.874;25.320;2023-05-21T05:48:27;97079.91;;;16.84;100.00
20115;BME280;10218;42.874;25.320;2023-05-21T05:50:55;97088.38;;;16.94;100.00
20115;BME280;10218;42.874;25.320;2023-05-21T05:53:23;97092.44;;;16.46;100.00
20115;BME280;10218;42.874;25.320;2023-05-21T05:55:50;97091.19;;;16.61;100.00
20115;BME280;10218;42.874;25.320;2023-05-21T05:58:17;97095.28;;;16.77;100.00
20115;BME280;10218;42.874;25.320;2023-05-21T06:00:45;97084.44;;;17.35;100.00
20115;BME280;10218;42.874;25.320;2023-05-21T06:03:12;97088.25;;;17.59;100.00
20115;BME280;10218;42.874;25.320;2023-05-21T06:05:40;97087.84;;;18.18;100.00
20115;BME280;10218;42.874;25.320;2023-05-21T06:08:07;97079.78;;;17.86;100.00
20115;BME280;10218;42.874;25.320;2023-05-21T06:10:34;97085.34;;;18.16;100.00
20115;BME280;10218;42.874;25.320;2023-05-21T06:13:02;97085.91;;;18.68;100.00
20115;BME280;10218;42.874;25.320;2023-05-21T06:15:29;97088.06;;;18.59;100.00
20115;BME280;10218;42.874;25.320;2023-05-21T06:17:57;97086.34;;;18.40;100.00
20115;BME280;10218;42.874;25.320;2023-05-21T06:20:24;97097.34;;;17.71;100.00
20115;BME280;10218;42.874;25.320;2023-05-21T06:22:51;97088.03;;;18.16;100.00
20115;BME280;10218;42.874;25.320;2023-05-21T06:25:19;97090.25;;;18.26;100.00
20115;BME280;10218;42.874;25.320;2023-05-21T06:27:46;97087.72;;;17.81;100.00
20115;BME280;10218;42.874;25.320;2023-05-21T06:30:13;97083.72;;;18.09;100.00
20115;BME280;10218;42.874;25.320;2023-05-21T06:32:42;97083.22;;;17.93;100.00
20115;BME280;10218;42.874;25.320;2023-05-21T06:35:10;97078.66;;;18.44;100.00
20115;BME280;10218;42.874;25.320;2023-05-21T06:37:37;97081.91;;;18.27;100.00
20115;BME280;10218;42.874;25.320;2023-05-21T06:40:07;97073.91;;;18.14;100.00
20115;BME280;10218;42.874;25.320;2023-05-21T06:42:35;97078.03;;;18.42;100.00
20115;BME280;10218;42.874;25.320;2023-05-21T06:45:05;97078.72;;;18.12;100.00
20115;BME280;10218;42.874;25.320;2023-05-21T06:47:34;97069.66;;;18.00;100.00
20115;BME280;10218;42.874;25.320;2023-05-21T06:50:02;97067.06;;;18.36;100.00
20115;BME280;10218;42.874;25.320;2023-05-21T06:52:29;97063.50;;;18.36;100.00
20115;BME280;10218;42.874;25.320;2023-05-21T06:54:59;97061.81;;;18.60;100.00
20115;BME280;10218;42.874;25.320;2023-05-21T06:57:26;97048.41;;;19.19;100.00
20115;BME280;10218;42.874;25.320;2023-05-21T06:59:53;97049.41;;;19.37;100.00
20115;BME280;10218;42.874;25.320;2023-05-21T07:02:20;97063.91;;;19.72;100.00
20115;BME280;10218;42.874;25.320;2023-05-21T07:04:47;97042.06;;;18.77;100.00
20115;BME280;10218;42.874;25.320;2023-05-21T07:07:14;97035.37;;;18.44;100.00
20115;BME280;10218;42.874;25.320;2023-05-21T07:09:42;97039.47;;;19.31;100.00
20115;BME280;10218;42.874;25.320;2023-05-21T07:12:09;97054.22;;;20.29;100.00
20115;BME280;10218;42.874;25.320;2023-05-21T07:14:36;97036.75;;;20.37;100.00
20115;BME280;10218;42.874;25.320;2023-05-21T07:17:03;97037.47;;;20.21;100.00
20115;BME280;10218;42.874;25.320;2023-05-21T07:19:31;97034.63;;;19.51;100.00
20115;BME280;10218;42.874;25.320;2023-05-21T07:21:58;97035.53;;;19.75;100.00
20115;BME280;10218;42.874;25.320;2023-05-21T07:24:26;97033.47;;;20.35;100.00
20115;BME280;10218;42.874;25.320;2023-05-21T07:26:53;97018.91;;;21.16;100.00
20115;BME280;10218;42.874;25.320;2023-05-21T07:29:20;97027.63;;;20.78;100.00
20115;BME280;10218;42.874;25.320;2023-05-21T07:31:48;97032.28;;;20.19;100.00
20115;BME280;10218;42.874;25.320;2023-05-21T07:34:15;97033.81;;;20.15;100.00
20115;BME280;10218;42.874;25.320;2023-05-21T07:36:42;97024.00;;;21.12;100.00
20115;BME280;10218;42.874;25.320;2023-05-21T07:39:10;97032.50;;;20.29;100.00
20115;BME280;10218;42.874;25.320;2023-05-21T07:41:37;97024.81;;;21.13;100.00
20115;BME280;10218;42.874;25.320;2023-05-21T07:44:05;97031.56;;;20.99;100.00
20115;BME280;10218;42.874;25.320;2023-05-21T07:46:33;97022.34;;;20.60;100.00
20115;BME280;10218;42.874;25.320;2023-05-21T07:49:00;97019.09;;;20.98;100.00
20115;BME280;10218;42.874;25.320;2023-05-21T07:51:27;97016.41;;;20.74;100.00
20115;BME280;10218;42.874;25.320;2023-05-21T07:53:55;97020.22;;;19.80;100.00
20115;BME280;10218;42.874;25.320;2023-05-21T07:56:24;97011.50;;;21.00;100.00
20115;BME280;10218;42.874;25.320;2023-05-21T07:58:52;97012.38;;;22.07;100.00
20115;BME280;10218;42.874;25.320;2023-05-21T08:01:20;97008.19;;;22.54;100.00
20115;BME280;10218;42.874;25.320;2023-05-21T08:03:48;97012.47;;;22.12;100.00
20115;BME280;10218;42.874;25.320;2023-05-21T08:06:15;97006.16;;;22.45;100.00
20115;BME280;10218;42.874;25.320;2023-05-21T08:08:43;97009.34;;;24.09;100.00
20115;BME280;10218;42.874;25.320;2023-05-21T08:11:10;97011.59;;;23.54;100.00
20115;BME280;10218;42.874;25.320;2023-05-21T08:13:38;97002.12;;;21.81;100.00
20115;BME280;10218;42.874;25.320;2023-05-21T08:16:05;97005.34;;;22.66;100.00
20115;BME280;10218;42.874;25.320;2023-05-21T08:18:33;97003.88;;;22.58;100.00
20115;BME280;10218;42.874;25.320;2023-05-21T08:21:00;97011.44;;;23.65;100.00
20115;BME280;10218;42.874;25.320;2023-05-21T08:23:27;97007.31;;;22.49;100.00
20115;BME280;10218;42.874;25.320;2023-05-21T08:25:55;97003.34;;;23.49;100.00
20115;BME280;10218;42.874;25.320;2023-05-21T08:28:22;97011.41;;;22.90;100.00
20115;BME280;10218;42.874;25.320;2023-05-21T08:30:50;97006.88;;;23.22;100.00
20115;BME280;10218;42.874;25.320;2023-05-21T08:33:17;97003.53;;;22.72;100.00
20115;BME280;10218;42.874;25.320;2023-05-21T08:35:46;97012.50;;;24.75;100.00
20115;BME280;10218;42.874;25.320;2023-05-21T08:38:14;97015.78;;;23.39;100.00
20115;BME280;10218;42.874;25.320;2023-05-21T08:40:44;97017.66;;;24.24;100.00
20115;BME280;10218;42.874;25.320;2023-05-21T08:43:12;97018.16;;;25.05;94.60
20115;BME280;10218;42.874;25.320;2023-05-21T08:45:52;97020.94;;;24.21;99.19
20115;BME280;10218;42.874;25.320;2023-05-21T08:48:22;96998.25;;;25.25;89.04
20115;BME280;10218;42.874;25.320;2023-05-21T08:50:51;97019.81;;;25.11;81.30
20115;BME280;10218;42.874;25.320;2023-05-21T08:53:20;97013.31;;;23.92;87.60
20115;BME280;10218;42.874;25.320;2023-05-21T08:55:54;97012.63;;;24.90;80.65
20115;BME280;10218;42.874;25.320;2023-05-21T08:58:24;97010.69;;;22.78;96.42
20115;BME280;10218;42.874;25.320;2023-05-21T09:00:53;97011.81;;;23.79;93.04
20115;BME280;10218;42.874;25.320;2023-05-21T09:03:23;97007.34;;;23.14;96.51
20115;BME280;10218;42.874;25.320;2023-05-21T09:05:52;97018.75;;;22.89;86.61
20115;BME280;10218;42.874;25.320;2023-05-21T09:08:30;97019.34;;;23.99;82.97
20115;BME280;10218;42.874;25.320;2023-05-21T09:11:00;97013.78;;;25.14;70.76
20115;BME280;10218;42.874;25.320;2023-05-21T09:13:30;97022.75;;;24.11;69.65
20115;BME280;10218;42.874;25.320;2023-05-21T09:15:59;97015.50;;;23.14;78.61
20115;BME280;10218;42.874;25.320;2023-05-21T09:18:26;97016.88;;;23.17;68.65
20115;BME280;10218;42.874;25.320;2023-05-21T09:20:54;97007.34;;;23.14;70.10
20115;BME280;10218;42.874;25.320;2023-05-21T09:23:22;97010.88;;;22.71;77.02
20115;BME280;10218;42.874;25.320;2023-05-21T09:25:50;97015.19;;;23.59;77.23
20115;BME280;10218;42.874;25.320;2023-05-21T09:28:18;97019.19;;;24.10;76.05
20115;BME280;10218;42.874;25.320;2023-05-21T09:30:47;97015.19;;;24.65;65.26
20115;BME280;10218;42.874;25.320;2023-05-21T09:33:25;97017.75;;;24.35;68.38
20115;BME280;10218;42.874;25.320;2023-05-21T09:35:52;97019.91;;;23.69;72.93
20115;BME280;10218;42.874;25.320;2023-05-21T09:38:23;97019.13;;;24.37;67.68
20115;BME280;10218;42.874;25.320;2023-05-21T09:40:54;97009.56;;;24.03;65.87
20115;BME280;10218;42.874;25.320;2023-05-21T09:43:22;97013.16;;;24.08;62.96
20115;BME280;10218;42.874;25.320;2023-05-21T09:45:55;97020.28;;;23.51;68.91
20115;BME280;10218;42.874;25.320;2023-05-21T09:48:41;97014.06;;;22.85;71.99
20115;BME280;10218;42.874;25.320;2023-05-21T09:53:50;97014.25;;;23.49;61.68
20115;BME280;10218;42.874;25.320;2023-05-21T09:56:22;97007.38;;;23.19;75.01
20115;BME280;10218;42.874;25.320;2023-05-21T09:58:52;97018.69;;;23.55;66.95
20115;BME280;10218;42.874;25.320;2023-05-21T10:01:20;97026.34;;;23.58;59.07
20115;BME280;10218;42.874;25.320;2023-05-21T10:04:00;97015.25;;;23.42;58.89
20115;BME280;10218;42.874;25.320;2023-05-21T10:06:29;97011.09;;;23.35;61.75
20115;BME280;10218;42.874;25.320;2023-05-21T10:08:59;97000.94;;;25.15;55.35
20115;BME280;10218;42.874;25.320;2023-05-21T10:11:33;97008.69;;;25.33;53.97
20115;BME280;10218;42.874;25.320;2023-05-21T10:14:08;97005.56;;;25.09;54.16
20115;BME280;10218;42.874;25.320;2023-05-21T10:16:35;97009.25;;;26.72;51.80
20115;BME280;10218;42.874;25.320;2023-05-21T10:19:04;96999.53;;;27.15;50.68
20115;BME280;10218;42.874;25.320;2023-05-21T10:21:36;97001.31;;;27.40;47.52
20115;BME280;10218;42.874;25.320;2023-05-21T10:24:07;96994.09;;;27.05;49.17
20115;BME280;10218;42.874;25.320;2023-05-21T10:26:35;96995.50;;;27.51;48.93
20115;BME280;10218;42.874;25.320;2023-05-21T10:29:04;97000.78;;;27.38;44.63
20115;BME280;10218;42.874;25.320;2023-05-21T10:31:31;97003.75;;;27.51;43.56
20115;BME280;10218;42.874;25.320;2023-05-21T10:33:59;96997.75;;;26.70;46.95
20115;BME280;10218;42.874;25.320;2023-05-21T10:36:29;97008.06;;;27.03;43.56
20115;BME280;10218;42.874;25.320;2023-05-21T10:39:00;97014.00;;;25.90;48.79
20115;BME280;10218;42.874;25.320;2023-05-21T10:41:34;97008.72;;;26.70;47.18
20115;BME280;10218;42.874;25.320;2023-05-21T10:49:44;97000.97;;;27.56;44.48
20115;BME280;10218;42.874;25.320;2023-05-21T10:58:09;97006.88;;;26.40;45.04
20115;BME280;10218;42.874;25.320;2023-05-21T11:00:43;97006.59;;;26.06;48.29
20115;BME280;10218;42.874;25.320;2023-05-21T11:03:11;97009.31;;;26.21;48.37
20115;BME280;10218;42.874;25.320;2023-05-21T11:05:40;97001.16;;;27.16;48.93
20115;BME280;10218;42.874;25.320;2023-05-21T11:08:26;97004.47;;;27.08;47.43
20115;BME280;10218;42.874;25.320;2023-05-21T11:10:57;97004.50;;;27.03;45.95
20115;BME280;10218;42.874;25.320;2023-05-21T11:13:25;96996.75;;;26.25;47.80
20115;BME280;10218;42.874;25.320;2023-05-21T11:21:15;97006.31;;;25.92;48.72
20115;BME280;10218;42.874;25.320;2023-05-21T11:24:01;96993.19;;;26.25;47.36
20115;BME280;10218;42.874;25.320;2023-05-21T11:29:17;96988.53;;;25.95;52.45
20115;BME280;10218;42.874;25.320;2023-05-21T11:31:47;96979.94;;;26.67;52.39
20115;BME280;10218;42.874;25.320;2023-05-21T11:34:21;96988.53;;;26.41;51.15
20115;BME280;10218;42.874;25.320;2023-05-21T11:39:50;96977.75;;;25.18;51.17
20115;BME280;10218;42.874;25.320;2023-05-21T11:42:28;96974.25;;;26.49;52.00
20115;BME280;10218;42.874;25.320;2023-05-21T11:44:57;96975.50;;;27.85;47.30
20115;BME280;10218;42.874;25.320;2023-05-21T11:47:26;96972.31;;;27.23;48.63
20115;BME280;10218;42.874;25.320;2023-05-21T11:49:56;96972.66;;;27.17;46.36
20115;BME280;10218;42.874;25.320;2023-05-21T11:52:23;96963.34;;;27.08;45.56
20115;BME280;10218;42.874;25.320;2023-05-21T11:54:52;96957.88;;;25.73;49.46
20115;BME280;10218;42.874;25.320;2023-05-21T11:57:27;96960.97;;;26.86;47.66
20115;BME280;10218;42.874;25.320;2023-05-21T12:00:00;96949.06;;;27.60;45.72
20115;BME280;10218;42.874;25.320;2023-05-21T12:02:31;96954.19;;;28.34;45.02
20115;BME280;10218;42.874;25.320;2023-05-21T12:04:59;96952.00;;;28.36;43.50
20115;BME280;10218;42.874;25.320;2023-05-21T12:07:27;96946.66;;;28.45;45.09
20115;BME280;10218;42.874;25.320;2023-05-21T12:09:56;96944.94;;;28.54;44.80
20115;BME280;10218;42.874;25.320;2023-05-21T12:12:25;96949.84;;;27.21;42.21
20115;BME280;10218;42.874;25.320;2023-05-21T12:14:54;96933.94;;;27.68;43.81
20115;BME280;10218;42.874;25.320;2023-05-21T12:17:22;96934.59;;;27.44;45.25
20115;BME280;10218;42.874;25.320;2023-05-21T12:19:52;96931.28;;;27.86;42.08
20115;BME280;10218;42.874;25.320;2023-05-21T12:22:19;96937.59;;;26.34;46.42
20115;BME280;10218;42.874;25.320;2023-05-21T12:24:47;96938.69;;;26.03;46.59
20115;BME280;10218;42.874;25.320;2023-05-21T12:27:15;96924.75;;;26.10;47.37
20115;BME280;10218;42.874;25.320;2023-05-21T12:29:48;96911.59;;;25.31;47.61
20115;BME280;10218;42.874;25.320;2023-05-21T12:32:16;96928.59;;;25.88;47.96
20115;BME280;10218;42.874;25.320;2023-05-21T12:34:53;96926.03;;;25.06;47.66
20115;BME280;10218;42.874;25.320;2023-05-21T12:37:29;96927.38;;;26.60;46.45
20115;BME280;10218;42.874;25.320;2023-05-21T12:40:03;96916.53;;;25.54;47.27
20115;BME280;10218;42.874;25.320;2023-05-21T12:42:37;96912.72;;;25.75;49.65
20115;BME280;10218;42.874;25.320;2023-05-21T12:45:07;96916.78;;;25.17;49.83
20115;BME280;10218;42.874;25.320;2023-05-21T12:47:35;96910.94;;;24.83;48.75
20115;BME280;10218;42.874;25.320;2023-05-21T12:50:04;96904.50;;;24.00;50.37
20115;BME280;10218;42.874;25.320;2023-05-21T12:52:33;96901.06;;;23.78;50.74
20115;BME280;10218;42.874;25.320;2023-05-21T12:55:01;96899.78;;;23.91;51.82
20115;BME280;10218;42.874;25.320;2023-05-21T12:57:35;96903.97;;;23.61;54.51
20115;BME280;10218;42.874;25.320;2023-05-21T13:00:05;96910.88;;;23.15;52.62
20115;BME280;10218;42.874;25.320;2023-05-21T13:02:37;96912.66;;;23.31;55.05
20115;BME280;10218;42.874;25.320;2023-05-21T13:05:07;96911.22;;;22.97;56.65
20115;BME280;10218;42.874;25.320;2023-05-21T13:07:36;96903.00;;;22.92;60.43
20115;BME280;10218;42.874;25.320;2023-05-21T13:10:04;96908.00;;;23.00;63.63
20115;BME280;10218;42.874;25.320;2023-05-21T13:12:32;96910.34;;;23.18;62.51
20115;BME280;10218;42.874;25.320;2023-05-21T13:15:02;96911.75;;;22.94;64.00